Terminal Aerodrome Forecast
Issued by NWS New Orleans/Baton Rouge, LA

Home | Current Version | Previous Version | Text Only | Print | Product List | Glossary On
Versions: 1 2 3 4 5 6 7 8 9 10 11 12 13 14 15 16 17 18
000
FTUS44 KLIX 291124
TAFNEW
TAF
KNEW 291124Z 2912/3012 14008KT 5SM HZ OVC006
     FM291400 14011KT P6SM BKN015
     FM291600 15013KT P6SM BKN050
     FM291800 15014KT P6SM SCT100
     FM300700 15010KT P6SM OVC020=

USA.gov is the U.S. government's official web portal to all federal, state and local government web resources and services.